Terminal Aerodrome Forecast
Issued by NWS North Platte, NE

Home | Current Version | Previous Version | Text Only | Print | Product List | Glossary Off
Versions: 1 2 3 4 5 6 7 8 9 10 11 12 13 14 15

995
FTUS43 KLBF 231126
TAFVTN
TAF
KVTN 231126Z 2312/2412 10008KT 5SM BR OVC003
     FM231600 14011KT P6SM SCT003 SCT250
     FM231800 16017G24KT P6SM SCT250
     FM232100 16020G29KT P6SM SCT250
     FM240200 17020G27KT P6SM SCT100 BKN250 PROB30 2403/2409 4SM
      -TSRA BKN050CB
     FM240900 20007KT P6SM OVC050=

USA.gov is the U.S. government's official web portal to all federal, state and local government web resources and services.